New Square, New York
Current Conditions -  °F | °C
As of 5:56 PM on Tuesday 21 Oct 2014 (Local Time) from KHPN Reporting Station
Broken Clouds Broken Clouds  
Wind Chill: 60°   Ceiling: 2800
Heat Index: 60°   Visibility: 10mi
Dew Point: 52°   Wind: 0mph
Humidity: 75%   Direction: NA
Pressure: 29.85"   Gusts: NA
Location:  41.1194°N, 74.0479°W
Report Text: KHPN 212156Z 00000KT 10SM SCT024 BKN028 16/11 A2985 RMK AO2 SLP109 T01560111
Loading
Personal Weather Stations






























Interactive Weather Map
Tropical Storm Tracking
New forecast layout! Learn more

10-Day Weather Forecast

Advertisements
Track Severe Weather on mobile